sensor_id;sensor_type;location;lat;lon;timestamp;temperature;humidity
46490;DHT22;32204;49.160;8.580;2023-07-13T00:00:24;22.20;99.90
46490;DHT22;32204;49.160;8.580;2023-07-13T00:02:50;22.10;99.90
46490;DHT22;32204;49.160;8.580;2023-07-13T00:05:19;22.10;99.90
46490;DHT22;32204;49.160;8.580;2023-07-13T00:07:45;22.00;99.90
46490;DHT22;32204;49.160;8.580;2023-07-13T00:10:11;22.00;99.90
46490;DHT22;32204;49.160;8.580;2023-07-13T00:12:37;21.90;99.90
46490;DHT22;32204;49.160;8.580;2023-07-13T00:15:38;21.90;99.90
46490;DHT22;32204;49.160;8.580;2023-07-13T00:17:57;21.90;99.90
46490;DHT22;32204;49.160;8.580;2023-07-13T00:20:24;21.90;99.90
46490;DHT22;32204;49.160;8.580;2023-07-13T00:22:54;21.80;99.90
46490;DHT22;32204;49.160;8.580;2023-07-13T00:25:21;21.90;99.90
46490;DHT22;32204;49.160;8.580;2023-07-13T00:27:47;21.80;99.90
46490;DHT22;32204;49.160;8.580;2023-07-13T00:30:16;21.70;99.90
46490;DHT22;32204;49.160;8.580;2023-07-13T00:32:42;21.70;99.90
46490;DHT22;32204;49.160;8.580;2023-07-13T00:35:08;21.70;99.90
46490;DHT22;32204;49.160;8.580;2023-07-13T00:37:34;21.60;99.90
46490;DHT22;32204;49.160;8.580;2023-07-13T00:40:02;21.50;99.90
46490;DHT22;32204;49.160;8.580;2023-07-13T00:42:28;21.40;99.90
46490;DHT22;32204;49.160;8.580;2023-07-13T00:47:43;21.40;99.90
46490;DHT22;32204;49.160;8.580;2023-07-13T00:50:13;21.30;99.90
46490;DHT22;32204;49.160;8.580;2023-07-13T00:52:47;20.90;99.90
46490;DHT22;32204;49.160;8.580;2023-07-13T00:55:14;20.80;1.00
46490;DHT22;32204;49.160;8.580;2023-07-13T00:57:41;20.90;1.00
46490;DHT22;32204;49.160;8.580;2023-07-13T01:00:08;20.80;1.00
46490;DHT22;32204;49.160;8.580;2023-07-13T01:02:39;20.50;1.00
46490;DHT22;32204;49.160;8.580;2023-07-13T01:05:10;20.30;1.00
46490;DHT22;32204;49.160;8.580;2023-07-13T01:07:35;20.20;1.00
46490;DHT22;32204;49.160;8.580;2023-07-13T01:10:02;20.20;1.00
46490;DHT22;32204;49.160;8.580;2023-07-13T01:12:28;20.20;1.00
46490;DHT22;32204;49.160;8.580;2023-07-13T01:15:01;20.30;1.00
46490;DHT22;32204;49.160;8.580;2023-07-13T01:17:28;20.50;1.00
46490;DHT22;32204;49.160;8.580;2023-07-13T01:19:54;20.40;1.00
46490;DHT22;32204;49.160;8.580;2023-07-13T01:22:20;20.50;1.00
46490;DHT22;32204;49.160;8.580;2023-07-13T01:24:51;20.60;1.00
46490;DHT22;32204;49.160;8.580;2023-07-13T01:27:21;20.70;1.00
46490;DHT22;32204;49.160;8.580;2023-07-13T01:29:48;20.40;1.00
46490;DHT22;32204;49.160;8.580;2023-07-13T01:32:23;20.20;1.00
46490;DHT22;32204;49.160;8.580;2023-07-13T01:34:50;20.20;1.00
46490;DHT22;32204;49.160;8.580;2023-07-13T01:37:16;20.20;1.00
46490;DHT22;32204;49.160;8.580;2023-07-13T01:39:42;20.30;1.00
46490;DHT22;32204;49.160;8.580;2023-07-13T01:42:07;20.40;1.00
46490;DHT22;32204;49.160;8.580;2023-07-13T01:44:33;20.30;1.00
46490;DHT22;32204;49.160;8.580;2023-07-13T01:46:59;20.10;1.00
46490;DHT22;32204;49.160;8.580;2023-07-13T01:49:24;19.90;1.00
46490;DHT22;32204;49.160;8.580;2023-07-13T01:51:50;19.60;99.90
46490;DHT22;32204;49.160;8.580;2023-07-13T01:54:15;19.50;99.90
46490;DHT22;32204;49.160;8.580;2023-07-13T01:56:41;19.50;99.90
46490;DHT22;32204;49.160;8.580;2023-07-13T01:59:08;19.50;99.90
46490;DHT22;32204;49.160;8.580;2023-07-13T02:01:34;19.60;99.90
46490;DHT22;32204;49.160;8.580;2023-07-13T02:03:59;19.70;99.90
46490;DHT22;32204;49.160;8.580;2023-07-13T02:06:25;19.80;99.90
46490;DHT22;32204;49.160;8.580;2023-07-13T02:08:50;19.90;99.90
46490;DHT22;32204;49.160;8.580;2023-07-13T02:11:16;19.90;99.90
46490;DHT22;32204;49.160;8.580;2023-07-13T02:13:42;19.80;97.10
46490;DHT22;32204;49.160;8.580;2023-07-13T02:16:08;19.70;99.90
46490;DHT22;32204;49.160;8.580;2023-07-13T02:18:33;19.60;99.90
46490;DHT22;32204;49.160;8.580;2023-07-13T02:20:59;19.50;99.90
46490;DHT22;32204;49.160;8.580;2023-07-13T02:23:24;19.50;99.90
46490;DHT22;32204;49.160;8.580;2023-07-13T02:25:57;19.60;99.90
46490;DHT22;32204;49.160;8.580;2023-07-13T02:28:24;19.80;99.90
46490;DHT22;32204;49.160;8.580;2023-07-13T02:30:49;19.80;99.90
46490;DHT22;32204;49.160;8.580;2023-07-13T02:33:15;19.90;99.90
46490;DHT22;32204;49.160;8.580;2023-07-13T02:35:41;19.80;99.90
46490;DHT22;32204;49.160;8.580;2023-07-13T02:38:06;19.80;99.30
46490;DHT22;32204;49.160;8.580;2023-07-13T02:40:32;19.50;87.70
46490;DHT22;32204;49.160;8.580;2023-07-13T02:43:02;19.40;99.90
46490;DHT22;32204;49.160;8.580;2023-07-13T02:45:27;19.30;99.90
46490;DHT22;32204;49.160;8.580;2023-07-13T02:47:54;18.90;99.90
46490;DHT22;32204;49.160;8.580;2023-07-13T02:50:20;18.80;99.90
46490;DHT22;32204;49.160;8.580;2023-07-13T02:52:45;18.50;1.00
46490;DHT22;32204;49.160;8.580;2023-07-13T02:55:11;18.30;1.00
46490;DHT22;32204;49.160;8.580;2023-07-13T02:57:37;18.10;99.90
46490;DHT22;32204;49.160;8.580;2023-07-13T03:00:04;18.10;99.90
46490;DHT22;32204;49.160;8.580;2023-07-13T03:02:33;18.20;99.90
46490;DHT22;32204;49.160;8.580;2023-07-13T03:05:00;18.30;93.00
46490;DHT22;32204;49.160;8.580;2023-07-13T03:07:26;18.30;42.90
46490;DHT22;32204;49.160;8.580;2023-07-13T03:09:58;18.40;1.00
46490;DHT22;32204;49.160;8.580;2023-07-13T03:12:24;18.50;25.60
46490;DHT22;32204;49.160;8.580;2023-07-13T03:14:50;18.60;1.00
46490;DHT22;32204;49.160;8.580;2023-07-13T03:17:16;18.70;1.00
46490;DHT22;32204;49.160;8.580;2023-07-13T03:19:41;18.80;1.00
46490;DHT22;32204;49.160;8.580;2023-07-13T03:22:07;18.90;1.00
46490;DHT22;32204;49.160;8.580;2023-07-13T03:24:34;19.00;99.90
46490;DHT22;32204;49.160;8.580;2023-07-13T03:27:01;19.10;99.90
46490;DHT22;32204;49.160;8.580;2023-07-13T03:29:27;18.80;99.90
46490;DHT22;32204;49.160;8.580;2023-07-13T03:31:53;18.50;1.00
46490;DHT22;32204;49.160;8.580;2023-07-13T03:34:18;18.30;1.00
46490;DHT22;32204;49.160;8.580;2023-07-13T03:36:44;18.20;1.00
46490;DHT22;32204;49.160;8.580;2023-07-13T03:39:09;18.20;51.70
46490;DHT22;32204;49.160;8.580;2023-07-13T03:41:36;18.30;6.30
46490;DHT22;32204;49.160;8.580;2023-07-13T03:44:01;18.30;1.00
46490;DHT22;32204;49.160;8.580;2023-07-13T03:46:27;18.30;15.90
46490;DHT22;32204;49.160;8.580;2023-07-13T03:48:53;18.40;36.90
46490;DHT22;32204;49.160;8.580;2023-07-13T03:51:19;18.40;1.00
46490;DHT22;32204;49.160;8.580;2023-07-13T03:53:46;18.40;73.60
46490;DHT22;32204;49.160;8.580;2023-07-13T03:56:12;18.50;1.00
46490;DHT22;32204;49.160;8.580;2023-07-13T03:58:42;18.50;1.00
46490;DHT22;32204;49.160;8.580;2023-07-13T04:01:09;18.60;1.00
46490;DHT22;32204;49.160;8.580;2023-07-13T04:03:35;18.60;1.00
46490;DHT22;32204;49.160;8.580;2023-07-13T04:06:03;18.70;1.00
46490;DHT22;32204;49.160;8.580;2023-07-13T04:08:31;18.90;1.00
46490;DHT22;32204;49.160;8.580;2023-07-13T04:10:57;19.00;1.00
46490;DHT22;32204;49.160;8.580;2023-07-13T04:13:24;19.00;1.00
46490;DHT22;32204;49.160;8.580;2023-07-13T04:15:50;19.00;1.00
46490;DHT22;32204;49.160;8.580;2023-07-13T04:18:16;19.10;1.00
46490;DHT22;32204;49.160;8.580;2023-07-13T04:20:42;19.10;1.00
46490;DHT22;32204;49.160;8.580;2023-07-13T04:23:07;19.00;99.90
46490;DHT22;32204;49.160;8.580;2023-07-13T04:25:33;18.80;1.00
46490;DHT22;32204;49.160;8.580;2023-07-13T04:27:58;18.80;1.00
46490;DHT22;32204;49.160;8.580;2023-07-13T04:30:24;18.90;1.00
46490;DHT22;32204;49.160;8.580;2023-07-13T04:32:51;19.10;1.00
46490;DHT22;32204;49.160;8.580;2023-07-13T04:35:18;19.10;1.00
46490;DHT22;32204;49.160;8.580;2023-07-13T04:37:46;19.20;1.00
46490;DHT22;32204;49.160;8.580;2023-07-13T04:40:12;19.20;1.00
46490;DHT22;32204;49.160;8.580;2023-07-13T04:42:37;19.30;1.00
46490;DHT22;32204;49.160;8.580;2023-07-13T04:45:05;19.20;99.90
46490;DHT22;32204;49.160;8.580;2023-07-13T04:47:31;19.30;99.90
46490;DHT22;32204;49.160;8.580;2023-07-13T04:49:57;19.40;99.90
46490;DHT22;32204;49.160;8.580;2023-07-13T04:52:23;19.40;99.90
46490;DHT22;32204;49.160;8.580;2023-07-13T04:54:49;19.60;99.90
46490;DHT22;32204;49.160;8.580;2023-07-13T04:57:14;20.20;99.90
46490;DHT22;32204;49.160;8.580;2023-07-13T04:59:40;21.00;3.30
46490;DHT22;32204;49.160;8.580;2023-07-13T05:02:06;21.60;1.00
46490;DHT22;32204;49.160;8.580;2023-07-13T05:04:31;22.20;1.00
46490;DHT22;32204;49.160;8.580;2023-07-13T05:06:58;22.90;99.90
46490;DHT22;32204;49.160;8.580;2023-07-13T05:09:24;23.70;99.90
46490;DHT22;32204;49.160;8.580;2023-07-13T05:11:50;24.10;99.90
46490;DHT22;32204;49.160;8.580;2023-07-13T05:14:15;24.40;99.90
46490;DHT22;32204;49.160;8.580;2023-07-13T05:16:42;24.70;99.90
46490;DHT22;32204;49.160;8.580;2023-07-13T05:19:08;24.90;99.90
46490;DHT22;32204;49.160;8.580;2023-07-13T05:21:34;24.10;99.90
46490;DHT22;32204;49.160;8.580;2023-07-13T05:23:59;23.30;99.90
46490;DHT22;32204;49.160;8.580;2023-07-13T05:26:25;23.00;99.90
46490;DHT22;32204;49.160;8.580;2023-07-13T05:28:51;23.00;99.90
46490;DHT22;32204;49.160;8.580;2023-07-13T05:31:16;22.80;99.90
46490;DHT22;32204;49.160;8.580;2023-07-13T05:33:42;22.70;99.90
46490;DHT22;32204;49.160;8.580;2023-07-13T05:36:08;22.80;99.90
46490;DHT22;32204;49.160;8.580;2023-07-13T05:38:34;22.90;99.90
46490;DHT22;32204;49.160;8.580;2023-07-13T05:40:59;23.20;99.90
46490;DHT22;32204;49.160;8.580;2023-07-13T05:43:25;23.60;99.90
46490;DHT22;32204;49.160;8.580;2023-07-13T05:45:55;24.10;99.90
46490;DHT22;32204;49.160;8.580;2023-07-13T05:48:21;25.10;99.90
46490;DHT22;32204;49.160;8.580;2023-07-13T05:50:47;26.10;99.90
46490;DHT22;32204;49.160;8.580;2023-07-13T05:53:13;26.80;99.90
46490;DHT22;32204;49.160;8.580;2023-07-13T05:55:43;26.50;99.90
46490;DHT22;32204;49.160;8.580;2023-07-13T05:58:10;26.40;99.90
46490;DHT22;32204;49.160;8.580;2023-07-13T06:00:36;26.70;99.90
46490;DHT22;32204;49.160;8.580;2023-07-13T06:03:02;27.60;90.60
46490;DHT22;32204;49.160;8.580;2023-07-13T06:05:27;28.20;69.50
46490;DHT22;32204;49.160;8.580;2023-07-13T06:07:54;28.90;55.50
46490;DHT22;32204;49.160;8.580;2023-07-13T06:10:20;29.50;41.90
46490;DHT22;32204;49.160;8.580;2023-07-13T06:12:45;29.70;1.00
46490;DHT22;32204;49.160;8.580;2023-07-13T06:15:11;30.20;1.00
46490;DHT22;32204;49.160;8.580;2023-07-13T06:17:37;30.30;1.00
46490;DHT22;32204;49.160;8.580;2023-07-13T06:20:02;31.20;1.00
46490;DHT22;32204;49.160;8.580;2023-07-13T06:22:28;31.70;1.00
46490;DHT22;32204;49.160;8.580;2023-07-13T06:24:54;31.60;1.00
46490;DHT22;32204;49.160;8.580;2023-07-13T06:27:19;31.40;1.00
46490;DHT22;32204;49.160;8.580;2023-07-13T06:29:45;30.70;1.00
46490;DHT22;32204;49.160;8.580;2023-07-13T06:32:13;30.80;1.00
46490;DHT22;32204;49.160;8.580;2023-07-13T06:34:38;31.60;1.00
46490;DHT22;32204;49.160;8.580;2023-07-13T06:37:04;32.00;1.00
46490;DHT22;32204;49.160;8.580;2023-07-13T06:39:30;32.20;1.00
46490;DHT22;32204;49.160;8.580;2023-07-13T06:41:55;32.40;1.00
46490;DHT22;32204;49.160;8.580;2023-07-13T06:44:21;32.60;1.00
46490;DHT22;32204;49.160;8.580;2023-07-13T06:46:47;32.00;1.00
46490;DHT22;32204;49.160;8.580;2023-07-13T06:49:12;32.30;1.00
46490;DHT22;32204;49.160;8.580;2023-07-13T06:51:38;31.40;1.00
46490;DHT22;32204;49.160;8.580;2023-07-13T06:54:03;31.00;1.00
46490;DHT22;32204;49.160;8.580;2023-07-13T06:56:29;30.90;1.00
46490;DHT22;32204;49.160;8.580;2023-07-13T06:58:55;30.30;1.00
46490;DHT22;32204;49.160;8.580;2023-07-13T07:01:21;29.30;1.00
46490;DHT22;32204;49.160;8.580;2023-07-13T07:03:47;28.20;1.00
46490;DHT22;32204;49.160;8.580;2023-07-13T07:06:16;27.70;1.00
46490;DHT22;32204;49.160;8.580;2023-07-13T07:08:42;27.60;1.00
46490;DHT22;32204;49.160;8.580;2023-07-13T07:11:11;27.40;1.00
46490;DHT22;32204;49.160;8.580;2023-07-13T07:13:37;27.20;1.00
46490;DHT22;32204;49.160;8.580;2023-07-13T07:16:03;27.10;1.00
46490;DHT22;32204;49.160;8.580;2023-07-13T07:18:29;26.70;1.00
46490;DHT22;32204;49.160;8.580;2023-07-13T07:20:54;26.40;1.00
46490;DHT22;32204;49.160;8.580;2023-07-13T07:23:20;26.10;1.00
46490;DHT22;32204;49.160;8.580;2023-07-13T07:25:46;25.90;1.00
46490;DHT22;32204;49.160;8.580;2023-07-13T07:28:16;25.70;1.00
46490;DHT22;32204;49.160;8.580;2023-07-13T07:30:48;25.70;1.00
46490;DHT22;32204;49.160;8.580;2023-07-13T07:33:15;25.60;1.00
46490;DHT22;32204;49.160;8.580;2023-07-13T07:35:42;25.50;1.00
46490;DHT22;32204;49.160;8.580;2023-07-13T07:38:08;25.30;1.00
46490;DHT22;32204;49.160;8.580;2023-07-13T07:40:40;25.30;1.00
46490;DHT22;32204;49.160;8.580;2023-07-13T07:43:07;25.20;1.00
46490;DHT22;32204;49.160;8.580;2023-07-13T07:45:33;25.10;1.00
46490;DHT22;32204;49.160;8.580;2023-07-13T07:47:59;25.40;1.00
46490;DHT22;32204;49.160;8.580;2023-07-13T07:50:25;25.50;1.00
46490;DHT22;32204;49.160;8.580;2023-07-13T07:52:51;25.40;1.00
46490;DHT22;32204;49.160;8.580;2023-07-13T07:55:17;25.20;1.00
46490;DHT22;32204;49.160;8.580;2023-07-13T07:57:43;25.20;1.00
46490;DHT22;32204;49.160;8.580;2023-07-13T08:00:09;25.20;1.00
46490;DHT22;32204;49.160;8.580;2023-07-13T08:02:34;25.20;1.00
46490;DHT22;32204;49.160;8.580;2023-07-13T08:05:00;25.10;1.00
46490;DHT22;32204;49.160;8.580;2023-07-13T08:07:26;25.10;1.00
46490;DHT22;32204;49.160;8.580;2023-07-13T08:09:55;25.00;1.00
46490;DHT22;32204;49.160;8.580;2023-07-13T08:12:20;24.90;1.00
46490;DHT22;32204;49.160;8.580;2023-07-13T08:14:49;25.10;1.00
46490;DHT22;32204;49.160;8.580;2023-07-13T08:17:19;25.20;1.00
46490;DHT22;32204;49.160;8.580;2023-07-13T08:19:45;25.20;1.00
46490;DHT22;32204;49.160;8.580;2023-07-13T08:22:11;25.10;1.00
46490;DHT22;32204;49.160;8.580;2023-07-13T08:24:36;25.20;1.00
46490;DHT22;32204;49.160;8.580;2023-07-13T08:27:02;25.20;1.00
46490;DHT22;32204;49.160;8.580;2023-07-13T08:29:28;25.10;1.00
46490;DHT22;32204;49.160;8.580;2023-07-13T08:31:54;25.30;1.00
46490;DHT22;32204;49.160;8.580;2023-07-13T08:34:19;25.20;1.00
46490;DHT22;32204;49.160;8.580;2023-07-13T08:36:46;25.30;1.00
46490;DHT22;32204;49.160;8.580;2023-07-13T08:39:11;25.20;1.00
46490;DHT22;32204;49.160;8.580;2023-07-13T08:41:37;25.30;1.00
46490;DHT22;32204;49.160;8.580;2023-07-13T08:44:05;25.50;1.00
46490;DHT22;32204;49.160;8.580;2023-07-13T08:46:40;25.70;1.00
46490;DHT22;32204;49.160;8.580;2023-07-13T08:49:13;25.80;1.00
46490;DHT22;32204;49.160;8.580;2023-07-13T08:51:45;25.80;1.00
46490;DHT22;32204;49.160;8.580;2023-07-13T08:56:49;26.20;1.00
46490;DHT22;32204;49.160;8.580;2023-07-13T08:59:20;26.10;1.00
46490;DHT22;32204;49.160;8.580;2023-07-13T09:01:56;26.10;1.00
46490;DHT22;32204;49.160;8.580;2023-07-13T09:04:49;26.30;1.00
46490;DHT22;32204;49.160;8.580;2023-07-13T09:10:15;26.10;1.00
46490;DHT22;32204;49.160;8.580;2023-07-13T09:15:29;25.90;1.00
46490;DHT22;32204;49.160;8.580;2023-07-13T09:18:11;25.90;1.00
46490;DHT22;32204;49.160;8.580;2023-07-13T09:20:46;25.80;1.00
46490;DHT22;32204;49.160;8.580;2023-07-13T09:23:16;25.90;1.00
46490;DHT22;32204;49.160;8.580;2023-07-13T09:25:48;26.00;1.00
46490;DHT22;32204;49.160;8.580;2023-07-13T09:28:22;26.00;1.00
46490;DHT22;32204;49.160;8.580;2023-07-13T09:33:40;26.10;1.00
46490;DHT22;32204;49.160;8.580;2023-07-13T09:36:29;26.40;1.00
46490;DHT22;32204;49.160;8.580;2023-07-13T09:41:57;26.80;1.00
46490;DHT22;32204;49.160;8.580;2023-07-13T09:47:19;26.60;1.00
46490;DHT22;32204;49.160;8.580;2023-07-13T09:49:48;26.70;1.00
46490;DHT22;32204;49.160;8.580;2023-07-13T09:52:18;26.60;1.00
46490;DHT22;32204;49.160;8.580;2023-07-13T09:54:48;26.50;1.00
46490;DHT22;32204;49.160;8.580;2023-07-13T09:57:18;26.40;1.00
46490;DHT22;32204;49.160;8.580;2023-07-13T09:59:47;26.10;1.00
46490;DHT22;32204;49.160;8.580;2023-07-13T10:02:33;26.20;1.00
46490;DHT22;32204;49.160;8.580;2023-07-13T10:05:19;26.10;1.00
46490;DHT22;32204;49.160;8.580;2023-07-13T10:07:47;26.30;1.00
46490;DHT22;32204;49.160;8.580;2023-07-13T10:10:19;26.40;1.00
46490;DHT22;32204;49.160;8.580;2023-07-13T10:12:46;26.40;1.00
46490;DHT22;32204;49.160;8.580;2023-07-13T10:15:22;26.10;1.00
46490;DHT22;32204;49.160;8.580;2023-07-13T10:17:50;26.00;1.00
46490;DHT22;32204;49.160;8.580;2023-07-13T10:20:16;26.10;1.00
46490;DHT22;32204;49.160;8.580;2023-07-13T10:22:55;26.10;1.00
46490;DHT22;32204;49.160;8.580;2023-07-13T10:25:26;26.20;1.00
46490;DHT22;32204;49.160;8.580;2023-07-13T10:27:54;26.20;1.00
46490;DHT22;32204;49.160;8.580;2023-07-13T10:30:28;26.50;1.00
46490;DHT22;32204;49.160;8.580;2023-07-13T10:33:00;26.80;1.00
46490;DHT22;32204;49.160;8.580;2023-07-13T10:35:29;26.80;1.00
46490;DHT22;32204;49.160;8.580;2023-07-13T10:38:04;26.60;1.00
46490;DHT22;32204;49.160;8.580;2023-07-13T10:43:36;27.00;1.00
46490;DHT22;32204;49.160;8.580;2023-07-13T10:46:05;27.10;1.00
46490;DHT22;32204;49.160;8.580;2023-07-13T10:48:32;27.00;1.00
46490;DHT22;32204;49.160;8.580;2023-07-13T10:50:59;26.80;1.00
46490;DHT22;32204;49.160;8.580;2023-07-13T10:53:31;26.50;1.00
46490;DHT22;32204;49.160;8.580;2023-07-13T10:56:24;26.40;1.00
46490;DHT22;32204;49.160;8.580;2023-07-13T11:04:31;26.80;1.00
46490;DHT22;32204;49.160;8.580;2023-07-13T11:07:22;27.10;1.00
46490;DHT22;32204;49.160;8.580;2023-07-13T11:09:53;27.10;1.00
46490;DHT22;32204;49.160;8.580;2023-07-13T11:17:54;27.30;1.00
46490;DHT22;32204;49.160;8.580;2023-07-13T11:20:46;27.40;1.00
46490;DHT22;32204;49.160;8.580;2023-07-13T11:25:42;27.00;1.00
46490;DHT22;32204;49.160;8.580;2023-07-13T11:36:15;26.10;1.00
46490;DHT22;32204;49.160;8.580;2023-07-13T11:38:43;26.10;1.00
46490;DHT22;32204;49.160;8.580;2023-07-13T11:41:22;26.20;1.00
46490;DHT22;32204;49.160;8.580;2023-07-13T11:44:01;26.40;1.00
46490;DHT22;32204;49.160;8.580;2023-07-13T11:46:28;26.50;1.00
46490;DHT22;32204;49.160;8.580;2023-07-13T11:48:54;26.60;1.00
46490;DHT22;32204;49.160;8.580;2023-07-13T11:51:32;26.30;1.00
46490;DHT22;32204;49.160;8.580;2023-07-13T11:54:47;26.00;1.00
46490;DHT22;32204;49.160;8.580;2023-07-13T11:56:48;26.00;1.00
46490;DHT22;32204;49.160;8.580;2023-07-13T11:59:14;26.10;1.00
46490;DHT22;32204;49.160;8.580;2023-07-13T12:01:47;26.30;1.00
46490;DHT22;32204;49.160;8.580;2023-07-13T12:04:27;26.50;1.00
46490;DHT22;32204;49.160;8.580;2023-07-13T12:07:03;26.50;1.00
46490;DHT22;32204;49.160;8.580;2023-07-13T12:09:29;26.40;1.00
46490;DHT22;32204;49.160;8.580;2023-07-13T12:11:57;26.30;1.00
46490;DHT22;32204;49.160;8.580;2023-07-13T12:14:25;26.20;1.00
46490;DHT22;32204;49.160;8.580;2023-07-13T12:16:52;26.10;1.00
46490;DHT22;32204;49.160;8.580;2023-07-13T12:19:21;26.10;1.00
46490;DHT22;32204;49.160;8.580;2023-07-13T12:21:48;26.20;1.00
46490;DHT22;32204;49.160;8.580;2023-07-13T12:24:17;26.50;1.00
46490;DHT22;32204;49.160;8.580;2023-07-13T12:26:43;26.60;1.00
46490;DHT22;32204;49.160;8.580;2023-07-13T12:29:16;26.90;1.00
46490;DHT22;32204;49.160;8.580;2023-07-13T12:31:44;27.00;1.00
46490;DHT22;32204;49.160;8.580;2023-07-13T12:36:46;27.50;1.00
46490;DHT22;32204;49.160;8.580;2023-07-13T12:39:33;27.60;1.00
46490;DHT22;32204;49.160;8.580;2023-07-13T12:42:19;27.50;1.00
46490;DHT22;32204;49.160;8.580;2023-07-13T12:44:52;27.20;1.00
46490;DHT22;32204;49.160;8.580;2023-07-13T12:47:21;27.20;1.00
46490;DHT22;32204;49.160;8.580;2023-07-13T12:49:55;27.00;1.00
46490;DHT22;32204;49.160;8.580;2023-07-13T12:52:29;26.90;1.00
46490;DHT22;32204;49.160;8.580;2023-07-13T12:55:14;26.90;1.00
46490;DHT22;32204;49.160;8.580;2023-07-13T12:57:51;26.90;1.00
46490;DHT22;32204;49.160;8.580;2023-07-13T13:00:25;26.80;1.00
46490;DHT22;32204;49.160;8.580;2023-07-13T13:02:56;27.00;1.00
46490;DHT22;32204;49.160;8.580;2023-07-13T13:05:25;27.10;1.00
46490;DHT22;32204;49.160;8.580;2023-07-13T13:07:51;27.10;1.00
46490;DHT22;32204;49.160;8.580;2023-07-13T13:10:17;27.20;1.00
46490;DHT22;32204;49.160;8.580;2023-07-13T13:12:43;27.10;1.00
46490;DHT22;32204;49.160;8.580;2023-07-13T13:15:10;27.00;1.00
46490;DHT22;32204;49.160;8.580;2023-07-13T13:17:37;27.00;1.00
46490;DHT22;32204;49.160;8.580;2023-07-13T13:20:20;27.00;1.00
46490;DHT22;32204;49.160;8.580;2023-07-13T13:22:46;27.00;1.00
46490;DHT22;32204;49.160;8.580;2023-07-13T13:25:14;26.90;1.00
46490;DHT22;32204;49.160;8.580;2023-07-13T13:27:41;26.80;1.00
46490;DHT22;32204;49.160;8.580;2023-07-13T13:30:13;26.70;1.00
46490;DHT22;32204;49.160;8.580;2023-07-13T13:32:40;26.60;1.00
46490;DHT22;32204;49.160;8.580;2023-07-13T13:35:17;26.80;1.00
46490;DHT22;32204;49.160;8.580;2023-07-13T13:37:44;26.80;1.00
46490;DHT22;32204;49.160;8.580;2023-07-13T13:40:20;27.00;1.00
46490;DHT22;32204;49.160;8.580;2023-07-13T13:42:46;27.00;1.00
46490;DHT22;32204;49.160;8.580;2023-07-13T13:45:12;27.00;1.00
46490;DHT22;32204;49.160;8.580;2023-07-13T13:47:39;27.20;1.00
46490;DHT22;32204;49.160;8.580;2023-07-13T13:50:16;27.40;1.00
46490;DHT22;32204;49.160;8.580;2023-07-13T13:52:43;27.60;1.00
46490;DHT22;32204;49.160;8.580;2023-07-13T13:55:18;27.50;1.00
46490;DHT22;32204;49.160;8.580;2023-07-13T13:57:47;27.30;1.00
46490;DHT22;32204;49.160;8.580;2023-07-13T14:00:15;27.30;1.00
46490;DHT22;32204;49.160;8.580;2023-07-13T14:02:45;27.20;1.00
46490;DHT22;32204;49.160;8.580;2023-07-13T14:05:14;27.00;1.00
46490;DHT22;32204;49.160;8.580;2023-07-13T14:07:40;27.30;1.00
46490;DHT22;32204;49.160;8.580;2023-07-13T14:10:12;27.60;1.00
46490;DHT22;32204;49.160;8.580;2023-07-13T14:12:39;27.80;1.00
46490;DHT22;32204;49.160;8.580;2023-07-13T14:15:05;27.90;1.00
46490;DHT22;32204;49.160;8.580;2023-07-13T14:17:31;27.80;1.00
46490;DHT22;32204;49.160;8.580;2023-07-13T14:19:56;27.80;1.00
46490;DHT22;32204;49.160;8.580;2023-07-13T14:22:26;27.60;1.00
46490;DHT22;32204;49.160;8.580;2023-07-13T14:24:55;27.50;1.00
46490;DHT22;32204;49.160;8.580;2023-07-13T14:27:22;27.60;1.00
46490;DHT22;32204;49.160;8.580;2023-07-13T14:29:48;28.00;1.00
46490;DHT22;32204;49.160;8.580;2023-07-13T14:32:13;28.10;1.00
46490;DHT22;32204;49.160;8.580;2023-07-13T14:34:40;28.30;1.00
46490;DHT22;32204;49.160;8.580;2023-07-13T14:37:08;28.20;1.00
46490;DHT22;32204;49.160;8.580;2023-07-13T14:39:37;28.10;1.00
46490;DHT22;32204;49.160;8.580;2023-07-13T14:42:04;27.90;1.00
46490;DHT22;32204;49.160;8.580;2023-07-13T14:44:30;27.90;1.00
46490;DHT22;32204;49.160;8.580;2023-07-13T14:47:02;27.90;1.00
46490;DHT22;32204;49.160;8.580;2023-07-13T14:49:40;27.80;1.00
46490;DHT22;32204;49.160;8.580;2023-07-13T14:52:19;27.60;1.00
46490;DHT22;32204;49.160;8.580;2023-07-13T14:54:45;27.70;1.00
46490;DHT22;32204;49.160;8.580;2023-07-13T14:57:13;27.90;1.00
46490;DHT22;32204;49.160;8.580;2023-07-13T14:59:39;27.80;1.00
46490;DHT22;32204;49.160;8.580;2023-07-13T15:02:25;27.60;1.00
46490;DHT22;32204;49.160;8.580;2023-07-13T15:04:52;27.30;1.00
46490;DHT22;32204;49.160;8.580;2023-07-13T15:07:18;27.10;1.00
46490;DHT22;32204;49.160;8.580;2023-07-13T15:09:46;27.20;1.00
46490;DHT22;32204;49.160;8.580;2023-07-13T15:12:13;27.10;1.00
46490;DHT22;32204;49.160;8.580;2023-07-13T15:14:39;27.00;1.00
46490;DHT22;32204;49.160;8.580;2023-07-13T15:17:08;27.30;1.00
46490;DHT22;32204;49.160;8.580;2023-07-13T15:19:41;27.20;1.00
46490;DHT22;32204;49.160;8.580;2023-07-13T15:22:08;27.20;1.00
46490;DHT22;32204;49.160;8.580;2023-07-13T15:24:35;27.20;1.00
46490;DHT22;32204;49.160;8.580;2023-07-13T15:27:00;27.20;1.00
46490;DHT22;32204;49.160;8.580;2023-07-13T15:29:26;27.10;1.00
46490;DHT22;32204;49.160;8.580;2023-07-13T15:31:51;27.00;1.00
46490;DHT22;32204;49.160;8.580;2023-07-13T15:34:24;27.20;1.00
46490;DHT22;32204;49.160;8.580;2023-07-13T15:36:51;27.40;1.00
46490;DHT22;32204;49.160;8.580;2023-07-13T15:39:17;27.80;1.00
46490;DHT22;32204;49.160;8.580;2023-07-13T15:41:44;28.10;1.00
46490;DHT22;32204;49.160;8.580;2023-07-13T15:44:28;28.30;1.00
46490;DHT22;32204;49.160;8.580;2023-07-13T15:46:54;28.40;1.00
46490;DHT22;32204;49.160;8.580;2023-07-13T15:49:20;28.30;1.00
46490;DHT22;32204;49.160;8.580;2023-07-13T15:51:47;28.10;1.00
46490;DHT22;32204;49.160;8.580;2023-07-13T15:54:15;28.00;1.00
46490;DHT22;32204;49.160;8.580;2023-07-13T15:56:41;28.10;1.00
46490;DHT22;32204;49.160;8.580;2023-07-13T15:59:10;28.00;1.00
46490;DHT22;32204;49.160;8.580;2023-07-13T16:01:40;28.30;1.00
46490;DHT22;32204;49.160;8.580;2023-07-13T16:04:07;28.50;1.00
46490;DHT22;32204;49.160;8.580;2023-07-13T16:06:35;28.30;1.00
46490;DHT22;32204;49.160;8.580;2023-07-13T16:09:02;28.10;1.00
46490;DHT22;32204;49.160;8.580;2023-07-13T16:11:34;27.80;1.00
46490;DHT22;32204;49.160;8.580;2023-07-13T16:14:00;27.70;1.00
46490;DHT22;32204;49.160;8.580;2023-07-13T16:16:29;27.80;1.00
46490;DHT22;32204;49.160;8.580;2023-07-13T16:18:59;27.90;1.00
46490;DHT22;32204;49.160;8.580;2023-07-13T16:21:31;27.80;1.00
46490;DHT22;32204;49.160;8.580;2023-07-13T16:24:01;27.80;1.00
46490;DHT22;32204;49.160;8.580;2023-07-13T16:26:29;27.60;1.00
46490;DHT22;32204;49.160;8.580;2023-07-13T16:28:58;27.60;1.00
46490;DHT22;32204;49.160;8.580;2023-07-13T16:31:30;27.60;1.00
46490;DHT22;32204;49.160;8.580;2023-07-13T16:34:00;27.60;1.00
46490;DHT22;32204;49.160;8.580;2023-07-13T16:36:27;27.80;1.00